North Hampton, Ohio
Current Conditions -  °F | °C
As of 11:56 AM on Sunday 21 Dec 2014 (Local Time) from KSGH Reporting Station
Haze Haze  
Wind Chill: 29°   Ceiling: Unl
Heat Index: 34°   Visibility: 5mi
Dew Point: 25°   Wind: 6mph
Humidity: 70%   Direction: 150°SSE
Pressure: 30.28"   Gusts: NA
Location:  39.99°N, 83.94°W
Report Text: KSGH 211656Z AUTO 15005KT 5SM HZ CLR 01/M04 A3028 RMK AO2 T00111038 SLP266
Loading
Personal Weather Stations






























Interactive Weather Map New forecast layout! Learn more

10-Day Weather Forecast

Advertisements
Track Severe Weather on mobile